To NAV CANADA Home Page Login to a new session Search on AWWS site Disclaimer Vers la page française équivalente Tips FAQ What's new on the site To the Forecasts and Observations / NOTAM section To "File a Flight Plan" website Publications and other links Update of the User's profile FIC Telephone Numbers My Weather Data Folder Route Weather Data Regional Weather Data Local Weather Data To the Forecasts and Observations / NOTAM section
Request Generated 08/19/2022 at 02:19:33 UTC . Weather information available at that time is displayed.

METAR/TAF

TORONTO/OSHAWA EXECUTIVE AIRPORT/ON    (show WxCam)

METAR CYOO 190200Z AUTO 01003KT 9SM SCT130 19/17 A2993 RMK SLP137 DENSITY ALT 1100FT=
SPECI CYOO 190102Z AUTO 00000KT 6SM HZ OVC130 22/17 A2993 RMK SLP135 DENSITY ALT 1500FT=
METAR CYOO 190100Z AUTO VRB02KT 5SM HZ OVC130 22/17 A2993 RMK SLP135 DENSITY ALT 1500FT=
SPECI CYOO 190054Z AUTO VRB02KT 5SM HZ OVC130 22/17 A2993 RMK SLP135 DENSITY ALT 1400FT=
METAR CYOO 190000Z AUTO 14002KT 9SM BKN066 BKN110 22/18 A2991 RMK SLP131 DENSITY ALT 1400FT=

TAF CYOO 190140Z 1902/1914 VRB03KT P6SM OVC130 TEMPO 1902/1904 3SM
HZ
FM190400 VRB03KT P6SM SCT100
RMK FCST BASED ON AUTO OBS. NXT FCST BY 190800Z
Your time UTC time
Weather data provided by Environment Canada and NAV CANADA